Weather History for Macomb, IL

Change the Weather History Date:

Monday, August 26, 2013

  Actual Average (KBRL) Record (KBRL)
Temperature  
Mean Temperature 78 °F 74 °F  
Max Temperature 93 °F 84 °F 99 °F (2003)
Min Temperature 64 °F 64 °F 46 °F (1910)
Degree Days  
Heating Degree Days 0 0  
Month to date heating degree days 0  
Since 1 June heating degree days 14  
Since 1 July heating degree days 1  
Cooling Degree Days 14 9  
Month to date cooling degree days 271  
Year to date cooling degree days 1000  
Since 1 June cooling degree days 897  
Growing Degree Days 28 (Base 50)    
Moisture  
Dew Point 69 °F    
Average Humidity 68    
Maximum Humidity 92    
Minimum Humidity 44    
Precipitation  
Precipitation 0.00 in 0.14 in 1.81 in (1954)
Month to date precipitation 3.55  
Year to date precipitation 26.53  
Sea Level Pressure  
Sea Level Pressure 30.14 in    
Wind  
Wind Speed 5 mph (SSW)    
Max Wind Speed 9 mph    
Max Gust Speed -    
Visibility 10 miles    
Events      
T = Trace of Precipitation, MM = Missing Value Source: NWS Daily Summary

Daily Weather History Graph

Daily Weather History Graph

Search for Another Location

Airport:

Trip Planner

Search our weather history database for the weather conditions in past years. The results will help you decide how hot, cold, wet, or windy it might be!

Date:

Astronomy

Aug. 26, 2013 Rise Set
Actual Time 6:24 AM CDT 7:43 PM CDT
Civil Twilight 5:55 AM CDT 8:11 PM CDT
Nautical Twilight 5:21 AM CDT 8:45 PM CDT
Astronomical Twilight 4:45 AM CDT 9:21 PM CDT
Moon 10:52 PM CDT (8/26) 12:27 PM CDT (8/26)
Length of Visible Light 14h 16m
Length of Day
13h 19m
Waning Gibbous, 66% of the Moon is Illuminated
Aug 26
Waning Gibbous
Aug 28
Last Quarter
Sep 5
New
Sep 12
First Quarter
Sep 19
Full

Hourly Weather History & Observations

Time (CDT) Temp. Heat Index Dew Point Humidity Pressure Visibility Wind Dir Wind Speed Gust Speed Precip Events Conditions
12:15 AM 74.3 °F - 64.6 °F 72% 30.20 in 10.0 mi South 6.9 mph - N/A   Clear
12:35 AM 73.6 °F - 64.6 °F 73% 30.20 in 10.0 mi South 6.9 mph - N/A   Clear
12:55 AM 73.6 °F - 64.6 °F 73% 30.20 in 10.0 mi South 6.9 mph - N/A   Clear
1:15 AM 73.6 °F - 64.4 °F 73% 30.19 in 10.0 mi South 5.8 mph - N/A   Clear
1:35 AM 73.6 °F - 64.4 °F 73% 30.19 in 10.0 mi South 8.1 mph - N/A   Clear
1:55 AM 73.4 °F - 64.4 °F 73% 30.18 in 10.0 mi South 5.8 mph - N/A   Clear
2:15 AM 72.9 °F - 64.4 °F 75% 30.17 in 10.0 mi South 6.9 mph - N/A   Clear
2:35 AM 72.5 °F - 64.6 °F 76% 30.17 in 10.0 mi South 5.8 mph - N/A   Clear
2:55 AM 72.5 °F - 64.9 °F 77% 30.18 in 10.0 mi SSW 4.6 mph - N/A   Clear
3:15 AM 71.8 °F - 65.1 °F 79% 30.18 in 10.0 mi SSW 4.6 mph - N/A   Clear
3:35 AM 70.0 °F - 65.3 °F 85% 30.18 in 10.0 mi SSW 4.6 mph - N/A   Clear
3:55 AM 69.3 °F - 65.3 °F 87% 30.18 in 10.0 mi SSW 3.5 mph - N/A   Clear
4:15 AM 69.3 °F - 65.3 °F 87% 30.18 in 10.0 mi SW 3.5 mph - N/A   Clear
4:35 AM 67.1 °F - 64.0 °F 90% 30.18 in 10.0 mi Calm Calm - N/A   Clear
4:55 AM 66.0 °F - 63.5 °F 92% 30.18 in 10.0 mi Calm Calm - N/A   Clear
5:15 AM 66.2 °F - 63.5 °F 91% 30.19 in 10.0 mi Calm Calm - N/A   Clear
5:35 AM 64.9 °F - 62.2 °F 91% 30.19 in 10.0 mi Calm Calm - N/A   Clear
5:55 AM 64.8 °F - 62.1 °F 91% 30.19 in 10.0 mi Calm Calm - N/A   Clear
6:15 AM 64.9 °F - 62.1 °F 90% 30.20 in 10.0 mi Calm Calm - N/A   Clear
6:35 AM 64.6 °F - 61.9 °F 91% 30.20 in 7.0 mi Calm Calm - N/A   Clear
6:55 AM 64.6 °F - 61.9 °F 91% 30.20 in 7.0 mi Calm Calm - N/A   Clear
7:15 AM 66.9 °F - 64.4 °F 92% 30.20 in 10.0 mi Calm Calm - N/A   Clear
7:35 AM 72.0 °F - 67.8 °F 87% 30.20 in 10.0 mi SW 3.5 mph - N/A   Clear
7:55 AM 74.3 °F - 68.2 °F 81% 30.20 in 7.0 mi SW 4.6 mph - N/A   Clear
8:15 AM 75.7 °F - 68.4 °F 78% 30.20 in 10.0 mi SW 5.8 mph - N/A   Clear
8:35 AM 77.4 °F - 68.2 °F 73% 30.20 in 10.0 mi WSW 5.8 mph - N/A   Clear
8:55 AM 79.0 °F - 68.7 °F 71% 30.21 in 10.0 mi SW 5.8 mph - N/A   Clear
9:15 AM 81.1 °F 84.5 °F 69.8 °F 68% 30.20 in 10.0 mi SW 3.5 mph - N/A   Clear
9:35 AM 82.6 °F 86.6 °F 70.2 °F 66% 30.20 in 10.0 mi WSW 4.6 mph - N/A   Clear
9:55 AM 84.2 °F 88.4 °F 70.0 °F 62% 30.20 in 10.0 mi WSW 8.1 mph - N/A   Clear
10:15 AM 85.3 °F 90.4 °F 71.1 °F 62% 30.20 in 10.0 mi West 6.9 mph - N/A   Clear
10:35 AM 86.7 °F 92.5 °F 71.4 °F 60% 30.20 in 10.0 mi WSW 5.8 mph - N/A   Clear
10:55 AM 87.1 °F 93.2 °F 71.8 °F 60% 30.20 in 10.0 mi West 5.8 mph - N/A   Clear
11:15 AM 87.8 °F 94.3 °F 72.0 °F 59% 30.19 in 10.0 mi WSW 5.8 mph - N/A   Clear
11:35 AM 88.5 °F 95.3 °F 72.0 °F 58% 30.19 in 10.0 mi West 5.8 mph - N/A   Clear
11:55 AM 90.0 °F 97.4 °F 72.3 °F 56% 30.18 in 10.0 mi West 6.9 mph - N/A   Clear
12:15 PM 90.5 °F 98.1 °F 72.3 °F 55% 30.17 in 10.0 mi WSW 3.5 mph - N/A   Clear
12:35 PM 90.9 °F 97.8 °F 71.8 °F 53% 30.17 in 10.0 mi WSW 6.9 mph - N/A   Clear
12:55 PM 91.0 °F 97.1 °F 70.9 °F 51% 30.16 in 10.0 mi WSW 5.8 mph - N/A   Scattered Clouds
1:15 PM 91.4 °F 97.3 °F 70.5 °F 50% 30.15 in 10.0 mi SW 8.1 mph - N/A   Clear
1:35 PM 91.6 °F 97.7 °F 70.5 °F 50% 30.14 in 10.0 mi West 5.8 mph - N/A   Clear
1:55 PM 90.5 °F 96.5 °F 70.5 °F 52% 30.13 in 10.0 mi West 3.5 mph - N/A   Scattered Clouds
2:15 PM 91.0 °F 96.6 °F 70.0 °F 50% 30.13 in 10.0 mi West 4.6 mph - N/A   Scattered Clouds
2:35 PM 92.3 °F 98.6 °F 70.5 °F 49% 30.12 in 10.0 mi SW 8.1 mph - N/A   Mostly Cloudy
2:55 PM 92.5 °F 97.9 °F 69.8 °F 47% 30.11 in 10.0 mi SSW 6.9 mph - N/A   Scattered Clouds
3:15 PM 92.5 °F 97.4 °F 69.1 °F 46% 30.11 in 10.0 mi SW 5.8 mph - N/A   Clear
3:35 PM 93.4 °F 98.6 °F 69.3 °F 45% 30.10 in 10.0 mi WSW 6.9 mph - N/A   Clear
3:55 PM 93.4 °F 98.1 °F 68.2 °F 44% 30.10 in 10.0 mi South 6.9 mph - N/A   Scattered Clouds
4:15 PM 92.7 °F 96.7 °F 67.8 °F 44% 30.10 in 10.0 mi SW 6.9 mph - N/A   Scattered Clouds
4:35 PM 92.7 °F 98.3 °F 69.4 °F 47% 30.09 in 10.0 mi SSW 9.2 mph - N/A   Scattered Clouds
4:55 PM 91.9 °F 96.4 °F 68.7 °F 46% 30.09 in 10.0 mi SSW 5.8 mph - N/A   Scattered Clouds
5:15 PM 91.8 °F 97.0 °F 69.8 °F 48% 30.08 in 10.0 mi SSW 3.5 mph - N/A   Scattered Clouds
5:35 PM 91.8 °F 97.5 °F 70.0 °F 49% 30.08 in 10.0 mi South 8.1 mph - N/A   Clear
5:55 PM 91.2 °F 96.5 °F 69.6 °F 49% 30.08 in 10.0 mi SSW 9.2 mph - N/A   Clear
6:15 PM 90.5 °F 94.6 °F 68.5 °F 48% 30.07 in 10.0 mi SSW 5.8 mph - N/A   Clear
6:35 PM 90.0 °F 94.5 °F 68.9 °F 50% 30.07 in 10.0 mi SSW 5.8 mph - N/A   Clear
6:55 PM 88.9 °F 93.8 °F 69.6 °F 53% 30.06 in 10.0 mi SSW 4.6 mph - N/A   Clear
7:15 PM 87.1 °F 92.0 °F 70.0 °F 57% 30.06 in 10.0 mi SSW 4.6 mph - N/A   Clear
7:35 PM 84.6 °F 89.4 °F 70.9 °F 63% 30.06 in 10.0 mi South 5.8 mph - N/A   Clear
7:55 PM 81.7 °F 86.0 °F 71.6 °F 71% 30.06 in 10.0 mi South 5.8 mph - N/A   Clear
8:15 PM 81.5 °F 85.9 °F 71.8 °F 72% 30.05 in 10.0 mi South 6.9 mph - N/A   Clear
8:35 PM 81.1 °F 85.8 °F 72.5 °F 75% 30.05 in 10.0 mi South 6.9 mph - N/A   Clear
8:55 PM 81.0 °F 85.8 °F 73.0 °F 77% 30.05 in 10.0 mi South 5.8 mph - N/A   Clear
9:15 PM 81.0 °F 85.8 °F 73.0 °F 77% 30.05 in 10.0 mi South 5.8 mph - N/A   Clear
9:35 PM 80.2 °F 84.6 °F 73.0 °F 79% 30.05 in 10.0 mi South 5.8 mph - N/A   Clear
9:55 PM 80.2 °F 84.6 °F 73.0 °F 79% 30.05 in 10.0 mi South 5.8 mph - N/A   Clear
10:15 PM 79.3 °F - 73.0 °F 81% 30.05 in 10.0 mi South 4.6 mph - N/A   Clear
10:35 PM 78.8 °F - 72.5 °F 81% 30.06 in 10.0 mi SSW 4.6 mph - N/A   Clear
10:55 PM 77.2 °F - 72.5 °F 85% 30.06 in 10.0 mi SSW 5.8 mph - N/A   Clear
11:15 PM 78.4 °F - 71.8 °F 80% 30.06 in 10.0 mi SSW 4.6 mph - N/A   Clear
11:35 PM 77.0 °F - 71.6 °F 83% 30.06 in 10.0 mi SSW 5.8 mph - N/A   Clear
11:55 PM 77.9 °F - 71.6 °F 81% 30.06 in 10.0 mi SSW 4.6 mph - N/A   Clear